sensor_id;sensor_type;location;lat;lon;timestamp;temperature;humidity
78793;SHT31;68134;51.984;5.652;2024-02-26T00:00:24;7.5;70.3
78793;SHT31;68134;51.984;5.652;2024-02-26T00:02:53;7.5;69.9
78793;SHT31;68134;51.984;5.652;2024-02-26T00:05:21;7.5;69.7
78793;SHT31;68134;51.984;5.652;2024-02-26T00:07:50;7.5;69.9
78793;SHT31;68134;51.984;5.652;2024-02-26T00:10:19;7.5;69.8
78793;SHT31;68134;51.984;5.652;2024-02-26T00:12:48;7.5;70.2
78793;SHT31;68134;51.984;5.652;2024-02-26T00:15:16;7.5;70.1
78793;SHT31;68134;51.984;5.652;2024-02-26T00:17:45;7.5;70.0
78793;SHT31;68134;51.984;5.652;2024-02-26T00:20:14;7.5;69.9
78793;SHT31;68134;51.984;5.652;2024-02-26T00:22:42;7.5;70.1
78793;SHT31;68134;51.984;5.652;2024-02-26T00:25:11;7.5;69.9
78793;SHT31;68134;51.984;5.652;2024-02-26T00:27:40;7.5;70.0
78793;SHT31;68134;51.984;5.652;2024-02-26T00:30:10;7.5;70.2
78793;SHT31;68134;51.984;5.652;2024-02-26T00:32:40;7.5;70.2
78793;SHT31;68134;51.984;5.652;2024-02-26T00:35:11;7.5;70.1
78793;SHT31;68134;51.984;5.652;2024-02-26T00:37:40;7.5;70.0
78793;SHT31;68134;51.984;5.652;2024-02-26T00:40:10;7.5;70.0
78793;SHT31;68134;51.984;5.652;2024-02-26T00:42:39;7.5;70.1
78793;SHT31;68134;51.984;5.652;2024-02-26T00:45:12;7.4;69.9
78793;SHT31;68134;51.984;5.652;2024-02-26T00:47:41;7.4;69.9
78793;SHT31;68134;51.984;5.652;2024-02-26T00:50:11;7.4;70.1
78793;SHT31;68134;51.984;5.652;2024-02-26T00:52:40;7.4;70.0
78793;SHT31;68134;51.984;5.652;2024-02-26T00:55:09;7.4;70.4
78793;SHT31;68134;51.984;5.652;2024-02-26T00:57:37;7.4;70.6
78793;SHT31;68134;51.984;5.652;2024-02-26T01:00:07;7.4;70.6
78793;SHT31;68134;51.984;5.652;2024-02-26T01:02:36;7.4;70.4
78793;SHT31;68134;51.984;5.652;2024-02-26T01:05:06;7.5;70.3
78793;SHT31;68134;51.984;5.652;2024-02-26T01:07:35;7.5;70.7
78793;SHT31;68134;51.984;5.652;2024-02-26T01:10:04;7.5;70.3
78793;SHT31;68134;51.984;5.652;2024-02-26T01:12:33;7.5;70.2
78793;SHT31;68134;51.984;5.652;2024-02-26T01:15:03;7.5;70.2
78793;SHT31;68134;51.984;5.652;2024-02-26T01:17:32;7.5;70.2
78793;SHT31;68134;51.984;5.652;2024-02-26T01:20:00;7.5;70.1
78793;SHT31;68134;51.984;5.652;2024-02-26T01:22:29;7.5;70.1
78793;SHT31;68134;51.984;5.652;2024-02-26T01:24:57;7.4;69.9
78793;SHT31;68134;51.984;5.652;2024-02-26T01:27:26;7.4;69.9
78793;SHT31;68134;51.984;5.652;2024-02-26T01:29:54;7.4;70.3
78793;SHT31;68134;51.984;5.652;2024-02-26T01:32:23;7.4;70.6
78793;SHT31;68134;51.984;5.652;2024-02-26T01:34:51;7.4;70.5
78793;SHT31;68134;51.984;5.652;2024-02-26T01:37:22;7.4;70.4
78793;SHT31;68134;51.984;5.652;2024-02-26T01:39:50;7.4;70.8
78793;SHT31;68134;51.984;5.652;2024-02-26T01:42:19;7.4;71.0
78793;SHT31;68134;51.984;5.652;2024-02-26T01:44:48;7.4;70.8
78793;SHT31;68134;51.984;5.652;2024-02-26T01:47:16;7.4;71.0
78793;SHT31;68134;51.984;5.652;2024-02-26T01:49:47;7.4;70.8
78793;SHT31;68134;51.984;5.652;2024-02-26T01:52:16;7.4;70.8
78793;SHT31;68134;51.984;5.652;2024-02-26T01:54:45;7.4;70.5
78793;SHT31;68134;51.984;5.652;2024-02-26T01:57:14;7.4;70.5
78793;SHT31;68134;51.984;5.652;2024-02-26T01:59:43;7.4;70.3
78793;SHT31;68134;51.984;5.652;2024-02-26T02:02:13;7.5;70.3
78793;SHT31;68134;51.984;5.652;2024-02-26T02:04:43;7.5;70.2
78793;SHT31;68134;51.984;5.652;2024-02-26T02:07:12;7.5;69.9
78793;SHT31;68134;51.984;5.652;2024-02-26T02:09:41;7.5;70.0
78793;SHT31;68134;51.984;5.652;2024-02-26T02:12:11;7.5;69.9
78793;SHT31;68134;51.984;5.652;2024-02-26T02:14:41;7.5;69.6
78793;SHT31;68134;51.984;5.652;2024-02-26T02:17:10;7.5;69.8
78793;SHT31;68134;51.984;5.652;2024-02-26T02:19:39;7.5;69.2
78793;SHT31;68134;51.984;5.652;2024-02-26T02:22:07;7.5;69.4
78793;SHT31;68134;51.984;5.652;2024-02-26T02:24:36;7.5;69.3
78793;SHT31;68134;51.984;5.652;2024-02-26T02:27:07;7.5;69.5
78793;SHT31;68134;51.984;5.652;2024-02-26T02:29:36;7.5;69.7
78793;SHT31;68134;51.984;5.652;2024-02-26T02:32:06;7.5;69.5
78793;SHT31;68134;51.984;5.652;2024-02-26T02:34:35;7.5;69.7
78793;SHT31;68134;51.984;5.652;2024-02-26T02:37:04;7.5;69.3
78793;SHT31;68134;51.984;5.652;2024-02-26T02:39:33;7.5;69.5
78793;SHT31;68134;51.984;5.652;2024-02-26T02:42:01;7.5;69.5
78793;SHT31;68134;51.984;5.652;2024-02-26T02:44:30;7.5;69.3
78793;SHT31;68134;51.984;5.652;2024-02-26T02:46:58;7.5;69.7
78793;SHT31;68134;51.984;5.652;2024-02-26T02:49:27;7.5;69.5
78793;SHT31;68134;51.984;5.652;2024-02-26T02:51:55;7.5;69.6
78793;SHT31;68134;51.984;5.652;2024-02-26T02:54:24;7.5;69.7
78793;SHT31;68134;51.984;5.652;2024-02-26T02:56:53;7.5;69.4
78793;SHT31;68134;51.984;5.652;2024-02-26T02:59:21;7.5;69.9
78793;SHT31;68134;51.984;5.652;2024-02-26T03:01:50;7.5;70.2
78793;SHT31;68134;51.984;5.652;2024-02-26T03:04:19;7.5;70.3
78793;SHT31;68134;51.984;5.652;2024-02-26T03:06:47;7.6;70.1
78793;SHT31;68134;51.984;5.652;2024-02-26T03:09:16;7.6;70.3
78793;SHT31;68134;51.984;5.652;2024-02-26T03:11:44;7.6;70.3
78793;SHT31;68134;51.984;5.652;2024-02-26T03:14:13;7.6;69.8
78793;SHT31;68134;51.984;5.652;2024-02-26T03:16:42;7.6;69.7
78793;SHT31;68134;51.984;5.652;2024-02-26T03:19:11;7.6;70.2
78793;SHT31;68134;51.984;5.652;2024-02-26T03:21:39;7.6;69.9
78793;SHT31;68134;51.984;5.652;2024-02-26T03:24:08;7.6;69.9
78793;SHT31;68134;51.984;5.652;2024-02-26T03:26:38;7.6;69.7
78793;SHT31;68134;51.984;5.652;2024-02-26T03:29:07;7.6;69.8
78793;SHT31;68134;51.984;5.652;2024-02-26T03:31:35;7.5;69.9
78793;SHT31;68134;51.984;5.652;2024-02-26T03:34:04;7.5;69.6
78793;SHT31;68134;51.984;5.652;2024-02-26T03:36:32;7.5;69.3
78793;SHT31;68134;51.984;5.652;2024-02-26T03:39:01;7.5;69.6
78793;SHT31;68134;51.984;5.652;2024-02-26T03:41:33;7.5;69.8
78793;SHT31;68134;51.984;5.652;2024-02-26T03:44:02;7.5;69.4
78793;SHT31;68134;51.984;5.652;2024-02-26T03:46:31;7.5;69.2
78793;SHT31;68134;51.984;5.652;2024-02-26T03:49:00;7.5;68.9
78793;SHT31;68134;51.984;5.652;2024-02-26T03:51:28;7.5;69.0
78793;SHT31;68134;51.984;5.652;2024-02-26T03:53:58;7.5;69.1
78793;SHT31;68134;51.984;5.652;2024-02-26T03:56:27;7.6;68.7
78793;SHT31;68134;51.984;5.652;2024-02-26T03:58:56;7.6;68.8
78793;SHT31;68134;51.984;5.652;2024-02-26T04:01:26;7.6;68.8
78793;SHT31;68134;51.984;5.652;2024-02-26T04:03:54;7.6;68.8
78793;SHT31;68134;51.984;5.652;2024-02-26T04:06:23;7.6;68.7
78793;SHT31;68134;51.984;5.652;2024-02-26T04:08:51;7.6;68.8
78793;SHT31;68134;51.984;5.652;2024-02-26T04:11:20;7.6;69.0
78793;SHT31;68134;51.984;5.652;2024-02-26T04:13:49;7.6;69.2
78793;SHT31;68134;51.984;5.652;2024-02-26T04:16:18;7.6;69.3
78793;SHT31;68134;51.984;5.652;2024-02-26T04:18:47;7.6;69.5
78793;SHT31;68134;51.984;5.652;2024-02-26T04:21:15;7.6;69.3
78793;SHT31;68134;51.984;5.652;2024-02-26T04:23:44;7.6;69.4
78793;SHT31;68134;51.984;5.652;2024-02-26T04:26:12;7.6;69.3
78793;SHT31;68134;51.984;5.652;2024-02-26T04:28:42;7.6;69.2
78793;SHT31;68134;51.984;5.652;2024-02-26T04:31:12;7.6;69.0
78793;SHT31;68134;51.984;5.652;2024-02-26T04:33:43;7.6;69.2
78793;SHT31;68134;51.984;5.652;2024-02-26T04:36:14;7.5;69.5
78793;SHT31;68134;51.984;5.652;2024-02-26T04:38:43;7.5;69.5
78793;SHT31;68134;51.984;5.652;2024-02-26T04:41:12;7.5;69.6
78793;SHT31;68134;51.984;5.652;2024-02-26T04:43:41;7.5;69.7
78793;SHT31;68134;51.984;5.652;2024-02-26T04:46:10;7.4;69.7
78793;SHT31;68134;51.984;5.652;2024-02-26T04:48:38;7.4;70.2
78793;SHT31;68134;51.984;5.652;2024-02-26T04:51:08;7.4;70.1
78793;SHT31;68134;51.984;5.652;2024-02-26T04:53:36;7.4;70.4
78793;SHT31;68134;51.984;5.652;2024-02-26T04:56:05;7.4;70.3
78793;SHT31;68134;51.984;5.652;2024-02-26T04:58:34;7.4;70.3
78793;SHT31;68134;51.984;5.652;2024-02-26T05:01:03;7.3;70.4
78793;SHT31;68134;51.984;5.652;2024-02-26T05:03:32;7.3;70.5
78793;SHT31;68134;51.984;5.652;2024-02-26T05:06:00;7.3;70.7
78793;SHT31;68134;51.984;5.652;2024-02-26T05:08:29;7.3;70.6
78793;SHT31;68134;51.984;5.652;2024-02-26T05:11:00;7.3;70.7
78793;SHT31;68134;51.984;5.652;2024-02-26T05:13:29;7.3;70.8
78793;SHT31;68134;51.984;5.652;2024-02-26T05:15:57;7.3;71.1
78793;SHT31;68134;51.984;5.652;2024-02-26T05:18:26;7.3;71.1
78793;SHT31;68134;51.984;5.652;2024-02-26T05:20:55;7.3;71.3
78793;SHT31;68134;51.984;5.652;2024-02-26T05:23:24;7.3;71.1
78793;SHT31;68134;51.984;5.652;2024-02-26T05:25:52;7.3;71.3
78793;SHT31;68134;51.984;5.652;2024-02-26T05:28:21;7.3;71.5
78793;SHT31;68134;51.984;5.652;2024-02-26T05:30:51;7.3;71.7
78793;SHT31;68134;51.984;5.652;2024-02-26T05:33:20;7.3;71.7
78793;SHT31;68134;51.984;5.652;2024-02-26T05:35:49;7.3;71.4
78793;SHT31;68134;51.984;5.652;2024-02-26T05:38:18;7.3;71.5
78793;SHT31;68134;51.984;5.652;2024-02-26T05:40:47;7.2;71.8
78793;SHT31;68134;51.984;5.652;2024-02-26T05:43:18;7.2;71.9
78793;SHT31;68134;51.984;5.652;2024-02-26T05:45:47;7.2;71.8
78793;SHT31;68134;51.984;5.652;2024-02-26T05:48:15;7.2;72.2
78793;SHT31;68134;51.984;5.652;2024-02-26T05:50:46;7.2;72.2
78793;SHT31;68134;51.984;5.652;2024-02-26T05:53:14;7.2;72.4
78793;SHT31;68134;51.984;5.652;2024-02-26T05:55:43;7.2;72.0
78793;SHT31;68134;51.984;5.652;2024-02-26T05:58:11;7.2;72.2
78793;SHT31;68134;51.984;5.652;2024-02-26T06:00:40;7.2;72.2
78793;SHT31;68134;51.984;5.652;2024-02-26T06:03:09;7.2;72.2
78793;SHT31;68134;51.984;5.652;2024-02-26T06:05:37;7.2;72.1
78793;SHT31;68134;51.984;5.652;2024-02-26T06:08:07;7.2;72.2
78793;SHT31;68134;51.984;5.652;2024-02-26T06:10:35;7.2;72.6
78793;SHT31;68134;51.984;5.652;2024-02-26T06:13:05;7.2;72.6
78793;SHT31;68134;51.984;5.652;2024-02-26T06:15:34;7.2;72.8
78793;SHT31;68134;51.984;5.652;2024-02-26T06:18:05;7.2;72.5
78793;SHT31;68134;51.984;5.652;2024-02-26T06:20:34;7.2;72.1
78793;SHT31;68134;51.984;5.652;2024-02-26T06:23:03;7.2;71.8
78793;SHT31;68134;51.984;5.652;2024-02-26T06:25:32;7.2;72.1
78793;SHT31;68134;51.984;5.652;2024-02-26T06:28:00;7.2;72.0
78793;SHT31;68134;51.984;5.652;2024-02-26T06:30:29;7.2;72.2
78793;SHT31;68134;51.984;5.652;2024-02-26T06:32:58;7.2;72.8
78793;SHT31;68134;51.984;5.652;2024-02-26T06:35:26;7.2;72.6
78793;SHT31;68134;51.984;5.652;2024-02-26T06:37:55;7.2;72.3
78793;SHT31;68134;51.984;5.652;2024-02-26T06:40:24;7.3;72.4
78793;SHT31;68134;51.984;5.652;2024-02-26T06:42:52;7.3;72.6
78793;SHT31;68134;51.984;5.652;2024-02-26T06:45:21;7.3;72.1
78793;SHT31;68134;51.984;5.652;2024-02-26T06:47:50;7.3;71.8
78793;SHT31;68134;51.984;5.652;2024-02-26T06:50:19;7.3;71.9
78793;SHT31;68134;51.984;5.652;2024-02-26T06:52:48;7.3;72.2
78793;SHT31;68134;51.984;5.652;2024-02-26T06:55:16;7.3;71.8
78793;SHT31;68134;51.984;5.652;2024-02-26T06:57:45;7.3;71.9
78793;SHT31;68134;51.984;5.652;2024-02-26T07:00:14;7.3;71.9
78793;SHT31;68134;51.984;5.652;2024-02-26T07:02:43;7.3;72.4
78793;SHT31;68134;51.984;5.652;2024-02-26T07:05:11;7.3;72.3
78793;SHT31;68134;51.984;5.652;2024-02-26T07:07:40;7.3;72.3
78793;SHT31;68134;51.984;5.652;2024-02-26T07:10:10;7.2;72.4
78793;SHT31;68134;51.984;5.652;2024-02-26T07:12:38;7.2;73.0
78793;SHT31;68134;51.984;5.652;2024-02-26T07:15:08;7.2;72.8
78793;SHT31;68134;51.984;5.652;2024-02-26T07:17:38;7.2;72.8
78793;SHT31;68134;51.984;5.652;2024-02-26T07:20:09;7.2;73.1
78793;SHT31;68134;51.984;5.652;2024-02-26T07:22:37;7.2;73.3
78793;SHT31;68134;51.984;5.652;2024-02-26T07:25:08;7.2;73.4
78793;SHT31;68134;51.984;5.652;2024-02-26T07:27:39;7.2;73.7
78793;SHT31;68134;51.984;5.652;2024-02-26T07:30:09;7.2;73.3
78793;SHT31;68134;51.984;5.652;2024-02-26T07:32:40;7.2;74.0
78793;SHT31;68134;51.984;5.652;2024-02-26T07:35:09;7.2;74.0
78793;SHT31;68134;51.984;5.652;2024-02-26T07:37:37;7.2;74.2
78793;SHT31;68134;51.984;5.652;2024-02-26T07:40:10;7.2;73.9
78793;SHT31;68134;51.984;5.652;2024-02-26T07:42:39;7.2;74.2
78793;SHT31;68134;51.984;5.652;2024-02-26T07:45:38;7.2;74.2
78793;SHT31;68134;51.984;5.652;2024-02-26T07:48:07;7.2;74.9
78793;SHT31;68134;51.984;5.652;2024-02-26T07:50:35;7.2;74.8
78793;SHT31;68134;51.984;5.652;2024-02-26T07:53:04;7.2;74.7
78793;SHT31;68134;51.984;5.652;2024-02-26T07:55:33;7.2;75.2
78793;SHT31;68134;51.984;5.652;2024-02-26T07:58:01;7.2;75.4
78793;SHT31;68134;51.984;5.652;2024-02-26T08:00:30;7.2;75.4
78793;SHT31;68134;51.984;5.652;2024-02-26T08:02:58;7.2;75.2
78793;SHT31;68134;51.984;5.652;2024-02-26T08:05:27;7.2;75.2
78793;SHT31;68134;51.984;5.652;2024-02-26T08:07:55;7.2;75.4
78793;SHT31;68134;51.984;5.652;2024-02-26T08:10:24;7.2;75.6
78793;SHT31;68134;51.984;5.652;2024-02-26T08:12:52;7.2;75.7
78793;SHT31;68134;51.984;5.652;2024-02-26T08:15:23;7.2;75.6
78793;SHT31;68134;51.984;5.652;2024-02-26T08:17:51;7.2;75.5
78793;SHT31;68134;51.984;5.652;2024-02-26T08:20:20;7.2;75.8
78793;SHT31;68134;51.984;5.652;2024-02-26T08:22:49;7.2;75.6
78793;SHT31;68134;51.984;5.652;2024-02-26T08:25:18;7.2;75.9
78793;SHT31;68134;51.984;5.652;2024-02-26T08:27:46;7.2;75.6
78793;SHT31;68134;51.984;5.652;2024-02-26T08:30:16;7.2;75.8
78793;SHT31;68134;51.984;5.652;2024-02-26T08:32:45;7.2;76.0
78793;SHT31;68134;51.984;5.652;2024-02-26T08:35:14;7.3;75.9
78793;SHT31;68134;51.984;5.652;2024-02-26T08:37:46;7.3;76.1
78793;SHT31;68134;51.984;5.652;2024-02-26T08:40:15;7.3;76.1
78793;SHT31;68134;51.984;5.652;2024-02-26T08:42:46;7.3;76.1
78793;SHT31;68134;51.984;5.652;2024-02-26T08:45:15;7.3;76.6
78793;SHT31;68134;51.984;5.652;2024-02-26T08:47:46;7.3;76.5
78793;SHT31;68134;51.984;5.652;2024-02-26T08:50:15;7.3;76.7
78793;SHT31;68134;51.984;5.652;2024-02-26T08:52:43;7.3;76.6
78793;SHT31;68134;51.984;5.652;2024-02-26T08:55:15;7.4;76.5
78793;SHT31;68134;51.984;5.652;2024-02-26T08:57:43;7.4;76.5
78793;SHT31;68134;51.984;5.652;2024-02-26T09:00:13;7.4;76.5
78793;SHT31;68134;51.984;5.652;2024-02-26T09:02:41;7.4;76.5
78793;SHT31;68134;51.984;5.652;2024-02-26T09:05:11;7.4;76.6
78793;SHT31;68134;51.984;5.652;2024-02-26T09:07:39;7.4;76.7
78793;SHT31;68134;51.984;5.652;2024-02-26T09:10:09;7.4;76.8
78793;SHT31;68134;51.984;5.652;2024-02-26T09:12:38;7.4;76.9
78793;SHT31;68134;51.984;5.652;2024-02-26T09:15:07;7.5;76.6
78793;SHT31;68134;51.984;5.652;2024-02-26T09:17:36;7.5;76.8
78793;SHT31;68134;51.984;5.652;2024-02-26T09:20:05;7.5;77.4
78793;SHT31;68134;51.984;5.652;2024-02-26T09:22:35;7.5;77.3
78793;SHT31;68134;51.984;5.652;2024-02-26T09:25:08;7.5;77.3
78793;SHT31;68134;51.984;5.652;2024-02-26T09:27:37;7.5;77.3
78793;SHT31;68134;51.984;5.652;2024-02-26T09:30:06;7.6;77.0
78793;SHT31;68134;51.984;5.652;2024-02-26T09:32:34;7.6;76.3
78793;SHT31;68134;51.984;5.652;2024-02-26T09:35:03;7.6;76.6
78793;SHT31;68134;51.984;5.652;2024-02-26T09:37:32;7.6;76.8
78793;SHT31;68134;51.984;5.652;2024-02-26T09:40:03;7.6;77.1
78793;SHT31;68134;51.984;5.652;2024-02-26T09:42:32;7.6;76.5
78793;SHT31;68134;51.984;5.652;2024-02-26T09:45:05;7.6;75.9
78793;SHT31;68134;51.984;5.652;2024-02-26T09:47:36;7.6;76.1
78793;SHT31;68134;51.984;5.652;2024-02-26T09:50:15;7.6;76.5
78793;SHT31;68134;51.984;5.652;2024-02-26T09:52:49;7.6;76.1
78793;SHT31;68134;51.984;5.652;2024-02-26T09:55:21;7.6;76.5
78793;SHT31;68134;51.984;5.652;2024-02-26T09:57:51;7.6;76.6
78793;SHT31;68134;51.984;5.652;2024-02-26T10:00:21;7.6;76.8
78793;SHT31;68134;51.984;5.652;2024-02-26T10:02:51;7.6;76.9
78793;SHT31;68134;51.984;5.652;2024-02-26T10:05:23;7.6;77.0
78793;SHT31;68134;51.984;5.652;2024-02-26T10:07:55;7.6;76.9
78793;SHT31;68134;51.984;5.652;2024-02-26T10:10:24;7.5;76.9
78793;SHT31;68134;51.984;5.652;2024-02-26T10:12:56;7.5;76.6
78793;SHT31;68134;51.984;5.652;2024-02-26T10:15:24;7.5;76.7
78793;SHT31;68134;51.984;5.652;2024-02-26T10:17:53;7.5;76.4
78793;SHT31;68134;51.984;5.652;2024-02-26T10:20:23;7.5;76.8
78793;SHT31;68134;51.984;5.652;2024-02-26T10:22:52;7.5;77.3
78793;SHT31;68134;51.984;5.652;2024-02-26T10:25:21;7.5;77.2
78793;SHT31;68134;51.984;5.652;2024-02-26T10:27:49;7.5;77.3
78793;SHT31;68134;51.984;5.652;2024-02-26T10:30:20;7.5;77.3
78793;SHT31;68134;51.984;5.652;2024-02-26T10:32:49;7.5;76.9
78793;SHT31;68134;51.984;5.652;2024-02-26T10:35:19;7.5;77.1
78793;SHT31;68134;51.984;5.652;2024-02-26T10:37:49;7.5;77.1
78793;SHT31;68134;51.984;5.652;2024-02-26T10:40:19;7.5;77.4
78793;SHT31;68134;51.984;5.652;2024-02-26T10:42:47;7.5;77.8
78793;SHT31;68134;51.984;5.652;2024-02-26T10:45:16;7.5;77.3
78793;SHT31;68134;51.984;5.652;2024-02-26T10:47:45;7.5;77.2
78793;SHT31;68134;51.984;5.652;2024-02-26T10:50:14;7.5;77.2
78793;SHT31;68134;51.984;5.652;2024-02-26T10:52:43;7.5;77.2
78793;SHT31;68134;51.984;5.652;2024-02-26T10:55:15;7.5;77.1
78793;SHT31;68134;51.984;5.652;2024-02-26T10:57:46;7.5;77.1
78793;SHT31;68134;51.984;5.652;2024-02-26T11:00:16;7.5;77.0
78793;SHT31;68134;51.984;5.652;2024-02-26T11:02:46;7.5;77.2
78793;SHT31;68134;51.984;5.652;2024-02-26T11:05:15;7.5;77.2
78793;SHT31;68134;51.984;5.652;2024-02-26T11:07:45;7.5;77.6
78793;SHT31;68134;51.984;5.652;2024-02-26T11:10:15;7.5;77.5
78793;SHT31;68134;51.984;5.652;2024-02-26T11:12:46;7.5;77.7
78793;SHT31;68134;51.984;5.652;2024-02-26T11:15:15;7.5;77.4
78793;SHT31;68134;51.984;5.652;2024-02-26T11:17:46;7.5;77.3
78793;SHT31;68134;51.984;5.652;2024-02-26T11:20:19;7.5;77.7
78793;SHT31;68134;51.984;5.652;2024-02-26T11:22:48;7.5;77.7
78793;SHT31;68134;51.984;5.652;2024-02-26T11:25:17;7.6;77.5
78793;SHT31;68134;51.984;5.652;2024-02-26T11:27:50;7.6;77.5
78793;SHT31;68134;51.984;5.652;2024-02-26T11:30:24;7.6;77.3
78793;SHT31;68134;51.984;5.652;2024-02-26T11:32:54;7.6;77.5
78793;SHT31;68134;51.984;5.652;2024-02-26T11:35:23;7.6;77.6
78793;SHT31;68134;51.984;5.652;2024-02-26T11:37:56;7.6;77.6
78793;SHT31;68134;51.984;5.652;2024-02-26T11:40:27;7.6;77.6
78793;SHT31;68134;51.984;5.652;2024-02-26T11:42:56;7.6;77.7
78793;SHT31;68134;51.984;5.652;2024-02-26T11:45:49;7.6;77.6
78793;SHT31;68134;51.984;5.652;2024-02-26T11:48:22;7.5;77.7
78793;SHT31;68134;51.984;5.652;2024-02-26T11:50:53;7.5;78.2
78793;SHT31;68134;51.984;5.652;2024-02-26T11:53:26;7.6;78.2
78793;SHT31;68134;51.984;5.652;2024-02-26T11:56:21;7.6;78.0
78793;SHT31;68134;51.984;5.652;2024-02-26T11:58:57;7.6;77.9
78793;SHT31;68134;51.984;5.652;2024-02-26T12:01:38;7.6;77.9
78793;SHT31;68134;51.984;5.652;2024-02-26T12:04:12;7.6;77.9
78793;SHT31;68134;51.984;5.652;2024-02-26T12:06:44;7.6;78.1
78793;SHT31;68134;51.984;5.652;2024-02-26T12:09:13;7.6;78.4
78793;SHT31;68134;51.984;5.652;2024-02-26T12:11:47;7.6;77.9
78793;SHT31;68134;51.984;5.652;2024-02-26T12:14:18;7.6;78.1
78793;SHT31;68134;51.984;5.652;2024-02-26T12:16:47;7.6;78.2
78793;SHT31;68134;51.984;5.652;2024-02-26T12:19:18;7.6;78.2
78793;SHT31;68134;51.984;5.652;2024-02-26T12:21:51;7.6;77.9
78793;SHT31;68134;51.984;5.652;2024-02-26T12:24:21;7.6;77.6
78793;SHT31;68134;51.984;5.652;2024-02-26T12:26:52;7.6;77.6
78793;SHT31;68134;51.984;5.652;2024-02-26T12:29:20;7.6;78.1
78793;SHT31;68134;51.984;5.652;2024-02-26T12:31:51;7.6;78.4
78793;SHT31;68134;51.984;5.652;2024-02-26T12:34:20;7.6;78.6
78793;SHT31;68134;51.984;5.652;2024-02-26T12:36:49;7.6;78.5
78793;SHT31;68134;51.984;5.652;2024-02-26T12:39:18;7.6;78.2
78793;SHT31;68134;51.984;5.652;2024-02-26T12:41:47;7.6;78.3
78793;SHT31;68134;51.984;5.652;2024-02-26T12:44:17;7.6;78.2
78793;SHT31;68134;51.984;5.652;2024-02-26T12:46:45;7.6;78.1
78793;SHT31;68134;51.984;5.652;2024-02-26T12:49:16;7.7;77.7
78793;SHT31;68134;51.984;5.652;2024-02-26T12:51:45;7.7;77.5
78793;SHT31;68134;51.984;5.652;2024-02-26T12:54:15;7.7;77.6
78793;SHT31;68134;51.984;5.652;2024-02-26T12:56:45;7.7;77.9
78793;SHT31;68134;51.984;5.652;2024-02-26T12:59:13;7.7;77.6
78793;SHT31;68134;51.984;5.652;2024-02-26T13:01:42;7.7;77.2
78793;SHT31;68134;51.984;5.652;2024-02-26T13:04:13;7.7;77.5
78793;SHT31;68134;51.984;5.652;2024-02-26T13:06:43;7.7;77.7
78793;SHT31;68134;51.984;5.652;2024-02-26T13:09:14;7.7;77.8
78793;SHT31;68134;51.984;5.652;2024-02-26T13:11:44;7.7;77.7
78793;SHT31;68134;51.984;5.652;2024-02-26T13:14:21;7.7;77.5
78793;SHT31;68134;51.984;5.652;2024-02-26T13:16:56;7.7;77.8
78793;SHT31;68134;51.984;5.652;2024-02-26T13:19:25;7.8;77.9
78793;SHT31;68134;51.984;5.652;2024-02-26T13:21:54;7.8;77.8
78793;SHT31;68134;51.984;5.652;2024-02-26T13:24:23;7.8;77.6
78793;SHT31;68134;51.984;5.652;2024-02-26T13:26:55;7.8;77.7
78793;SHT31;68134;51.984;5.652;2024-02-26T13:29:26;7.8;77.8
78793;SHT31;68134;51.984;5.652;2024-02-26T13:31:58;7.9;77.5
78793;SHT31;68134;51.984;5.652;2024-02-26T13:34:28;7.9;77.6
78793;SHT31;68134;51.984;5.652;2024-02-26T13:36:57;7.9;77.6
78793;SHT31;68134;51.984;5.652;2024-02-26T13:39:27;7.9;77.4
78793;SHT31;68134;51.984;5.652;2024-02-26T13:41:56;8.0;77.2
78793;SHT31;68134;51.984;5.652;2024-02-26T13:44:25;8.0;77.1
78793;SHT31;68134;51.984;5.652;2024-02-26T13:46:55;8.0;76.7
78793;SHT31;68134;51.984;5.652;2024-02-26T13:49:24;8.1;76.4
78793;SHT31;68134;51.984;5.652;2024-02-26T13:51:52;8.1;76.8
78793;SHT31;68134;51.984;5.652;2024-02-26T13:54:21;8.1;76.9
78793;SHT31;68134;51.984;5.652;2024-02-26T13:56:49;8.1;76.8
78793;SHT31;68134;51.984;5.652;2024-02-26T13:59:18;8.1;77.0
78793;SHT31;68134;51.984;5.652;2024-02-26T14:01:47;8.1;76.6
78793;SHT31;68134;51.984;5.652;2024-02-26T14:04:15;8.2;76.9
78793;SHT31;68134;51.984;5.652;2024-02-26T14:06:44;8.2;76.6
78793;SHT31;68134;51.984;5.652;2024-02-26T14:09:13;8.2;76.4
78793;SHT31;68134;51.984;5.652;2024-02-26T14:11:45;8.2;75.5
78793;SHT31;68134;51.984;5.652;2024-02-26T14:14:14;8.2;75.9
78793;SHT31;68134;51.984;5.652;2024-02-26T14:16:42;8.2;75.7
78793;SHT31;68134;51.984;5.652;2024-02-26T14:19:11;8.2;75.7
78793;SHT31;68134;51.984;5.652;2024-02-26T14:21:40;8.2;76.0
78793;SHT31;68134;51.984;5.652;2024-02-26T14:24:08;8.2;75.9
78793;SHT31;68134;51.984;5.652;2024-02-26T14:26:37;8.3;75.7
78793;SHT31;68134;51.984;5.652;2024-02-26T14:29:05;8.3;75.9
78793;SHT31;68134;51.984;5.652;2024-02-26T14:31:34;8.3;75.6
78793;SHT31;68134;51.984;5.652;2024-02-26T14:34:02;8.3;74.9
78793;SHT31;68134;51.984;5.652;2024-02-26T14:36:31;8.3;75.3
78793;SHT31;68134;51.984;5.652;2024-02-26T14:38:59;8.3;75.9
78793;SHT31;68134;51.984;5.652;2024-02-26T14:41:28;8.4;75.6
78793;SHT31;68134;51.984;5.652;2024-02-26T14:43:56;8.4;74.9
78793;SHT31;68134;51.984;5.652;2024-02-26T14:46:25;8.4;74.7
78793;SHT31;68134;51.984;5.652;2024-02-26T14:48:53;8.4;75.0
78793;SHT31;68134;51.984;5.652;2024-02-26T14:51:23;8.4;74.5
78793;SHT31;68134;51.984;5.652;2024-02-26T14:53:52;8.5;74.3
78793;SHT31;68134;51.984;5.652;2024-02-26T14:56:20;8.5;74.5
78793;SHT31;68134;51.984;5.652;2024-02-26T14:58:51;8.5;73.7
78793;SHT31;68134;51.984;5.652;2024-02-26T15:01:20;8.5;73.7
78793;SHT31;68134;51.984;5.652;2024-02-26T15:03:48;8.5;73.7
78793;SHT31;68134;51.984;5.652;2024-02-26T15:06:17;8.5;73.2
78793;SHT31;68134;51.984;5.652;2024-02-26T15:08:46;8.5;72.7
78793;SHT31;68134;51.984;5.652;2024-02-26T15:11:15;8.5;72.6
78793;SHT31;68134;51.984;5.652;2024-02-26T15:13:44;8.5;72.7
78793;SHT31;68134;51.984;5.652;2024-02-26T15:16:19;8.5;72.0
78793;SHT31;68134;51.984;5.652;2024-02-26T15:18:48;8.5;72.8
78793;SHT31;68134;51.984;5.652;2024-02-26T15:21:17;8.4;72.6
78793;SHT31;68134;51.984;5.652;2024-02-26T15:23:45;8.4;72.6
78793;SHT31;68134;51.984;5.652;2024-02-26T15:26:15;8.4;72.4
78793;SHT31;68134;51.984;5.652;2024-02-26T15:28:44;8.4;71.9
78793;SHT31;68134;51.984;5.652;2024-02-26T15:31:12;8.4;72.6
78793;SHT31;68134;51.984;5.652;2024-02-26T15:33:41;8.4;72.5
78793;SHT31;68134;51.984;5.652;2024-02-26T15:36:09;8.4;72.0
78793;SHT31;68134;51.984;5.652;2024-02-26T15:38:38;8.4;72.3
78793;SHT31;68134;51.984;5.652;2024-02-26T15:41:13;8.4;72.5
78793;SHT31;68134;51.984;5.652;2024-02-26T15:43:41;8.4;72.7
78793;SHT31;68134;51.984;5.652;2024-02-26T15:46:10;8.4;72.9
78793;SHT31;68134;51.984;5.652;2024-02-26T15:48:38;8.4;72.0
78793;SHT31;68134;51.984;5.652;2024-02-26T15:51:07;8.4;72.2
78793;SHT31;68134;51.984;5.652;2024-02-26T15:53:37;8.4;72.2
78793;SHT31;68134;51.984;5.652;2024-02-26T15:56:07;8.4;72.2
78793;SHT31;68134;51.984;5.652;2024-02-26T15:58:35;8.4;72.3
78793;SHT31;68134;51.984;5.652;2024-02-26T16:01:07;8.4;72.4
78793;SHT31;68134;51.984;5.652;2024-02-26T16:03:38;8.4;72.1
78793;SHT31;68134;51.984;5.652;2024-02-26T16:06:12;8.4;72.0
78793;SHT31;68134;51.984;5.652;2024-02-26T16:08:42;8.4;72.0
78793;SHT31;68134;51.984;5.652;2024-02-26T16:11:11;8.4;71.3
78793;SHT31;68134;51.984;5.652;2024-02-26T16:13:40;8.4;71.4
78793;SHT31;68134;51.984;5.652;2024-02-26T16:16:15;8.4;71.4
78793;SHT31;68134;51.984;5.652;2024-02-26T16:18:45;8.4;71.6
78793;SHT31;68134;51.984;5.652;2024-02-26T16:21:13;8.3;71.6
78793;SHT31;68134;51.984;5.652;2024-02-26T16:23:44;8.3;71.7
78793;SHT31;68134;51.984;5.652;2024-02-26T16:26:12;8.3;71.7
78793;SHT31;68134;51.984;5.652;2024-02-26T16:28:41;8.3;72.1
78793;SHT31;68134;51.984;5.652;2024-02-26T16:31:09;8.3;71.5